sensor_id;sensor_type;location;lat;lon;timestamp;P1;durP1;ratioP1;P2;durP2;ratioP2
20324;SDS011;10320;49.482;11.256;2024-03-23T00:54:31;5.47;;;5.00;;
20324;SDS011;10320;49.482;11.256;2024-03-23T00:56:57;5.20;;;4.70;;
20324;SDS011;10320;49.482;11.256;2024-03-23T00:59:23;7.17;;;5.23;;
20324;SDS011;10320;49.482;11.256;2024-03-23T01:01:53;5.33;;;4.57;;
20324;SDS011;10320;49.482;11.256;2024-03-23T01:04:19;6.40;;;4.70;;
20324;SDS011;10320;49.482;11.256;2024-03-23T01:06:45;5.63;;;4.60;;
20324;SDS011;10320;49.482;11.256;2024-03-23T01:09:12;4.73;;;4.03;;
20324;SDS011;10320;49.482;11.256;2024-03-23T01:11:38;6.30;;;5.27;;
20324;SDS011;10320;49.482;11.256;2024-03-23T01:14:04;6.17;;;5.03;;
20324;SDS011;10320;49.482;11.256;2024-03-23T01:16:31;6.40;;;4.80;;
20324;SDS011;10320;49.482;11.256;2024-03-23T01:18:57;5.53;;;4.50;;
20324;SDS011;10320;49.482;11.256;2024-03-23T01:21:23;7.53;;;5.23;;
20324;SDS011;10320;49.482;11.256;2024-03-23T01:23:49;6.23;;;5.30;;
20324;SDS011;10320;49.482;11.256;2024-03-23T01:26:15;5.63;;;4.87;;
20324;SDS011;10320;49.482;11.256;2024-03-23T01:28:41;5.30;;;4.73;;
20324;SDS011;10320;49.482;11.256;2024-03-23T01:31:07;6.30;;;4.80;;
20324;SDS011;10320;49.482;11.256;2024-03-23T01:33:33;5.67;;;4.77;;
20324;SDS011;10320;49.482;11.256;2024-03-23T01:35:59;5.53;;;4.80;;
20324;SDS011;10320;49.482;11.256;2024-03-23T01:38:25;5.13;;;4.57;;
20324;SDS011;10320;49.482;11.256;2024-03-23T01:40:56;4.83;;;4.20;;
20324;SDS011;10320;49.482;11.256;2024-03-23T01:43:22;6.20;;;4.50;;
20324;SDS011;10320;49.482;11.256;2024-03-23T01:45:48;5.70;;;4.47;;
20324;SDS011;10320;49.482;11.256;2024-03-23T01:48:14;4.50;;;4.10;;
20324;SDS011;10320;49.482;11.256;2024-03-23T01:50:40;6.13;;;4.67;;
20324;SDS011;10320;49.482;11.256;2024-03-23T01:53:07;5.67;;;5.07;;
20324;SDS011;10320;49.482;11.256;2024-03-23T01:55:33;6.60;;;5.23;;
20324;SDS011;10320;49.482;11.256;2024-03-23T01:57:59;6.30;;;5.20;;
20324;SDS011;10320;49.482;11.256;2024-03-23T02:00:25;5.80;;;4.80;;
20324;SDS011;10320;49.482;11.256;2024-03-23T02:02:53;6.53;;;4.70;;
20324;SDS011;10320;49.482;11.256;2024-03-23T02:05:20;5.70;;;4.60;;
20324;SDS011;10320;49.482;11.256;2024-03-23T02:07:46;5.53;;;4.43;;
20324;SDS011;10320;49.482;11.256;2024-03-23T02:10:12;5.57;;;5.00;;
20324;SDS011;10320;49.482;11.256;2024-03-23T02:12:38;8.30;;;4.67;;
20324;SDS011;10320;49.482;11.256;2024-03-23T02:15:04;6.77;;;4.57;;
20324;SDS011;10320;49.482;11.256;2024-03-23T02:17:34;4.93;;;4.43;;
20324;SDS011;10320;49.482;11.256;2024-03-23T02:20:00;6.23;;;4.70;;
20324;SDS011;10320;49.482;11.256;2024-03-23T02:22:36;5.30;;;4.80;;
20324;SDS011;10320;49.482;11.256;2024-03-23T02:25:03;4.63;;;3.70;;
20324;SDS011;10320;49.482;11.256;2024-03-23T02:27:29;4.90;;;4.50;;
20324;SDS011;10320;49.482;11.256;2024-03-23T02:29:55;5.57;;;4.70;;
20324;SDS011;10320;49.482;11.256;2024-03-23T02:32:21;4.50;;;4.10;;
20324;SDS011;10320;49.482;11.256;2024-03-23T02:34:47;5.07;;;4.57;;
20324;SDS011;10320;49.482;11.256;2024-03-23T02:37:13;5.00;;;4.30;;
20324;SDS011;10320;49.482;11.256;2024-03-23T02:39:39;4.97;;;4.47;;
20324;SDS011;10320;49.482;11.256;2024-03-23T02:42:05;5.67;;;4.70;;
20324;SDS011;10320;49.482;11.256;2024-03-23T02:44:32;4.70;;;4.10;;
20324;SDS011;10320;49.482;11.256;2024-03-23T02:46:58;5.53;;;4.30;;
20324;SDS011;10320;49.482;11.256;2024-03-23T02:49:25;5.63;;;4.40;;
20324;SDS011;10320;49.482;11.256;2024-03-23T02:51:51;5.37;;;4.03;;
20324;SDS011;10320;49.482;11.256;2024-03-23T02:54:17;5.77;;;4.23;;
20324;SDS011;10320;49.482;11.256;2024-03-23T02:56:43;5.63;;;4.20;;
20324;SDS011;10320;49.482;11.256;2024-03-23T02:59:09;4.63;;;4.23;;
20324;SDS011;10320;49.482;11.256;2024-03-23T03:01:35;5.10;;;4.60;;
20324;SDS011;10320;49.482;11.256;2024-03-23T03:04:01;4.63;;;4.13;;
20324;SDS011;10320;49.482;11.256;2024-03-23T03:06:27;4.77;;;4.27;;
20324;SDS011;10320;49.482;11.256;2024-03-23T03:08:53;5.67;;;4.50;;
20324;SDS011;10320;49.482;11.256;2024-03-23T03:11:19;4.63;;;4.20;;
20324;SDS011;10320;49.482;11.256;2024-03-23T03:13:45;4.53;;;4.13;;
20324;SDS011;10320;49.482;11.256;2024-03-23T03:16:11;5.53;;;4.20;;
20324;SDS011;10320;49.482;11.256;2024-03-23T03:18:38;5.37;;;4.10;;
20324;SDS011;10320;49.482;11.256;2024-03-23T03:21:05;4.43;;;3.87;;
20324;SDS011;10320;49.482;11.256;2024-03-23T03:23:35;4.70;;;3.90;;
20324;SDS011;10320;49.482;11.256;2024-03-23T03:26:01;5.70;;;4.10;;
20324;SDS011;10320;49.482;11.256;2024-03-23T03:28:27;4.60;;;3.83;;
20324;SDS011;10320;49.482;11.256;2024-03-23T03:30:55;4.93;;;4.43;;
20324;SDS011;10320;49.482;11.256;2024-03-23T03:33:21;5.90;;;4.30;;
20324;SDS011;10320;49.482;11.256;2024-03-23T03:35:47;4.97;;;4.20;;
20324;SDS011;10320;49.482;11.256;2024-03-23T03:38:14;5.13;;;4.23;;
20324;SDS011;10320;49.482;11.256;2024-03-23T03:40:41;5.50;;;4.37;;
20324;SDS011;10320;49.482;11.256;2024-03-23T03:43:07;4.93;;;4.43;;
20324;SDS011;10320;49.482;11.256;2024-03-23T03:45:33;4.87;;;4.17;;
20324;SDS011;10320;49.482;11.256;2024-03-23T03:47:59;4.23;;;3.87;;
20324;SDS011;10320;49.482;11.256;2024-03-23T03:50:25;4.47;;;3.90;;
20324;SDS011;10320;49.482;11.256;2024-03-23T03:52:51;5.07;;;4.40;;
20324;SDS011;10320;49.482;11.256;2024-03-23T03:55:17;5.40;;;4.33;;
20324;SDS011;10320;49.482;11.256;2024-03-23T03:57:43;4.50;;;4.10;;
20324;SDS011;10320;49.482;11.256;2024-03-23T04:00:09;5.27;;;4.40;;
20324;SDS011;10320;49.482;11.256;2024-03-23T04:02:36;4.37;;;3.97;;
20324;SDS011;10320;49.482;11.256;2024-03-23T04:05:03;5.63;;;3.97;;
20324;SDS011;10320;49.482;11.256;2024-03-23T04:07:29;5.37;;;4.20;;
20324;SDS011;10320;49.482;11.256;2024-03-23T04:09:55;5.40;;;4.40;;
20324;SDS011;10320;49.482;11.256;2024-03-23T04:12:21;4.50;;;4.10;;
20324;SDS011;10320;49.482;11.256;2024-03-23T04:14:47;4.77;;;3.87;;
20324;SDS011;10320;49.482;11.256;2024-03-23T04:17:12;6.90;;;4.17;;
20324;SDS011;10320;49.482;11.256;2024-03-23T04:19:39;8.27;;;5.33;;
20324;SDS011;10320;49.482;11.256;2024-03-23T04:22:04;7.70;;;5.60;;
20324;SDS011;10320;49.482;11.256;2024-03-23T04:24:30;6.57;;;5.83;;
20324;SDS011;10320;49.482;11.256;2024-03-23T04:26:57;8.00;;;6.13;;
20324;SDS011;10320;49.482;11.256;2024-03-23T04:29:23;6.50;;;5.80;;
20324;SDS011;10320;49.482;11.256;2024-03-23T04:31:50;6.67;;;5.97;;
20324;SDS011;10320;49.482;11.256;2024-03-23T04:34:16;6.60;;;5.73;;
20324;SDS011;10320;49.482;11.256;2024-03-23T04:36:42;6.83;;;5.40;;
20324;SDS011;10320;49.482;11.256;2024-03-23T04:39:08;7.27;;;5.67;;
20324;SDS011;10320;49.482;11.256;2024-03-23T04:41:35;7.20;;;5.83;;
20324;SDS011;10320;49.482;11.256;2024-03-23T04:44:01;6.20;;;5.13;;
20324;SDS011;10320;49.482;11.256;2024-03-23T04:46:27;6.37;;;5.70;;
20324;SDS011;10320;49.482;11.256;2024-03-23T04:48:53;7.17;;;5.13;;
20324;SDS011;10320;49.482;11.256;2024-03-23T04:51:22;6.87;;;4.90;;
20324;SDS011;10320;49.482;11.256;2024-03-23T04:53:49;6.37;;;5.27;;
20324;SDS011;10320;49.482;11.256;2024-03-23T04:56:16;5.60;;;4.97;;
20324;SDS011;10320;49.482;11.256;2024-03-23T04:58:42;5.33;;;4.83;;
20324;SDS011;10320;49.482;11.256;2024-03-23T05:01:13;6.50;;;4.53;;
20324;SDS011;10320;49.482;11.256;2024-03-23T05:03:39;4.90;;;4.40;;
20324;SDS011;10320;49.482;11.256;2024-03-23T05:06:05;6.00;;;4.87;;
20324;SDS011;10320;49.482;11.256;2024-03-23T05:08:31;5.20;;;4.40;;
20324;SDS011;10320;49.482;11.256;2024-03-23T05:10:57;4.23;;;3.83;;
20324;SDS011;10320;49.482;11.256;2024-03-23T05:13:23;5.17;;;4.40;;
20324;SDS011;10320;49.482;11.256;2024-03-23T05:15:55;6.37;;;4.70;;
20324;SDS011;10320;49.482;11.256;2024-03-23T05:18:21;6.07;;;4.33;;
20324;SDS011;10320;49.482;11.256;2024-03-23T05:20:47;6.23;;;4.50;;
20324;SDS011;10320;49.482;11.256;2024-03-23T05:23:13;5.60;;;4.80;;
20324;SDS011;10320;49.482;11.256;2024-03-23T05:25:40;8.03;;;5.07;;
20324;SDS011;10320;49.482;11.256;2024-03-23T05:28:06;5.50;;;4.97;;
20324;SDS011;10320;49.482;11.256;2024-03-23T05:30:32;5.43;;;4.67;;
20324;SDS011;10320;49.482;11.256;2024-03-23T05:32:58;5.20;;;4.70;;
20324;SDS011;10320;49.482;11.256;2024-03-23T05:35:24;4.90;;;4.20;;
20324;SDS011;10320;49.482;11.256;2024-03-23T05:37:50;7.70;;;4.33;;
20324;SDS011;10320;49.482;11.256;2024-03-23T05:40:16;4.73;;;3.93;;
20324;SDS011;10320;49.482;11.256;2024-03-23T05:42:42;4.80;;;4.10;;
20324;SDS011;10320;49.482;11.256;2024-03-23T05:45:08;6.40;;;4.67;;
20324;SDS011;10320;49.482;11.256;2024-03-23T05:47:34;6.03;;;4.30;;
20324;SDS011;10320;49.482;11.256;2024-03-23T05:50:00;5.43;;;4.00;;
20324;SDS011;10320;49.482;11.256;2024-03-23T05:52:27;4.37;;;3.93;;
20324;SDS011;10320;49.482;11.256;2024-03-23T05:54:53;4.27;;;3.60;;
20324;SDS011;10320;49.482;11.256;2024-03-23T05:57:19;6.80;;;4.13;;
20324;SDS011;10320;49.482;11.256;2024-03-23T05:59:45;5.87;;;4.37;;
20324;SDS011;10320;49.482;11.256;2024-03-23T06:02:11;4.73;;;4.10;;
20324;SDS011;10320;49.482;11.256;2024-03-23T06:04:37;4.73;;;3.80;;
20324;SDS011;10320;49.482;11.256;2024-03-23T06:07:03;4.17;;;3.80;;
20324;SDS011;10320;49.482;11.256;2024-03-23T06:09:31;4.53;;;3.87;;
20324;SDS011;10320;49.482;11.256;2024-03-23T06:11:57;4.00;;;3.60;;
20324;SDS011;10320;49.482;11.256;2024-03-23T06:14:23;4.10;;;3.70;;
20324;SDS011;10320;49.482;11.256;2024-03-23T06:16:49;4.40;;;4.00;;
20324;SDS011;10320;49.482;11.256;2024-03-23T06:19:15;4.57;;;3.90;;
20324;SDS011;10320;49.482;11.256;2024-03-23T06:21:44;4.63;;;3.90;;
20324;SDS011;10320;49.482;11.256;2024-03-23T06:24:11;4.50;;;4.10;;
20324;SDS011;10320;49.482;11.256;2024-03-23T06:26:39;4.20;;;3.80;;
20324;SDS011;10320;49.482;11.256;2024-03-23T06:29:05;5.00;;;4.17;;
20324;SDS011;10320;49.482;11.256;2024-03-23T06:31:52;5.30;;;4.37;;
20324;SDS011;10320;49.482;11.256;2024-03-23T06:34:18;5.53;;;4.90;;
20324;SDS011;10320;49.482;11.256;2024-03-23T06:36:46;6.97;;;5.57;;
20324;SDS011;10320;49.482;11.256;2024-03-23T06:39:12;7.03;;;5.63;;
20324;SDS011;10320;49.482;11.256;2024-03-23T06:41:40;7.90;;;5.97;;
20324;SDS011;10320;49.482;11.256;2024-03-23T06:44:06;7.50;;;5.90;;
20324;SDS011;10320;49.482;11.256;2024-03-23T06:46:32;7.07;;;6.23;;
20324;SDS011;10320;49.482;11.256;2024-03-23T06:48:58;7.03;;;6.33;;
20324;SDS011;10320;49.482;11.256;2024-03-23T06:51:24;9.13;;;7.30;;
20324;SDS011;10320;49.482;11.256;2024-03-23T06:53:50;9.27;;;6.90;;
20324;SDS011;10320;49.482;11.256;2024-03-23T06:56:16;9.23;;;6.83;;
20324;SDS011;10320;49.482;11.256;2024-03-23T06:58:44;9.87;;;7.47;;
20324;SDS011;10320;49.482;11.256;2024-03-23T07:01:10;9.00;;;7.40;;
20324;SDS011;10320;49.482;11.256;2024-03-23T07:03:36;9.07;;;7.77;;
20324;SDS011;10320;49.482;11.256;2024-03-23T07:06:02;8.47;;;7.53;;
20324;SDS011;10320;49.482;11.256;2024-03-23T07:08:28;9.33;;;7.27;;
20324;SDS011;10320;49.482;11.256;2024-03-23T07:10:54;7.90;;;6.90;;
20324;SDS011;10320;49.482;11.256;2024-03-23T07:13:20;9.07;;;6.93;;
20324;SDS011;10320;49.482;11.256;2024-03-23T07:15:52;9.23;;;7.10;;
20324;SDS011;10320;49.482;11.256;2024-03-23T07:18:20;8.50;;;6.80;;
20324;SDS011;10320;49.482;11.256;2024-03-23T07:20:53;9.33;;;7.07;;
20324;SDS011;10320;49.482;11.256;2024-03-23T07:23:19;8.37;;;7.47;;
20324;SDS011;10320;49.482;11.256;2024-03-23T07:25:45;9.23;;;6.90;;
20324;SDS011;10320;49.482;11.256;2024-03-23T07:28:11;7.83;;;6.63;;
20324;SDS011;10320;49.482;11.256;2024-03-23T07:30:37;8.13;;;6.47;;
20324;SDS011;10320;49.482;11.256;2024-03-23T07:33:03;8.00;;;6.67;;
20324;SDS011;10320;49.482;11.256;2024-03-23T07:35:29;8.73;;;6.73;;
20324;SDS011;10320;49.482;11.256;2024-03-23T07:37:55;7.70;;;5.93;;
20324;SDS011;10320;49.482;11.256;2024-03-23T07:40:21;7.87;;;5.90;;
20324;SDS011;10320;49.482;11.256;2024-03-23T07:42:47;8.43;;;6.30;;
20324;SDS011;10320;49.482;11.256;2024-03-23T07:45:13;6.73;;;5.83;;
20324;SDS011;10320;49.482;11.256;2024-03-23T07:47:39;8.03;;;5.87;;
20324;SDS011;10320;49.482;11.256;2024-03-23T07:50:05;7.67;;;5.30;;
20324;SDS011;10320;49.482;11.256;2024-03-23T07:52:32;6.50;;;5.50;;
20324;SDS011;10320;49.482;11.256;2024-03-23T07:54:58;8.27;;;5.77;;
20324;SDS011;10320;49.482;11.256;2024-03-23T07:57:24;7.57;;;5.77;;
20324;SDS011;10320;49.482;11.256;2024-03-23T07:59:49;6.83;;;5.70;;
20324;SDS011;10320;49.482;11.256;2024-03-23T08:02:17;7.33;;;5.70;;
20324;SDS011;10320;49.482;11.256;2024-03-23T08:04:43;8.20;;;5.90;;
20324;SDS011;10320;49.482;11.256;2024-03-23T08:07:09;6.47;;;5.67;;
20324;SDS011;10320;49.482;11.256;2024-03-23T08:09:35;6.87;;;5.50;;
20324;SDS011;10320;49.482;11.256;2024-03-23T08:12:01;7.10;;;5.77;;
20324;SDS011;10320;49.482;11.256;2024-03-23T08:14:27;8.63;;;6.07;;
20324;SDS011;10320;49.482;11.256;2024-03-23T08:16:54;5.73;;;5.13;;
20324;SDS011;10320;49.482;11.256;2024-03-23T08:19:20;7.10;;;5.50;;
20324;SDS011;10320;49.482;11.256;2024-03-23T08:21:46;6.53;;;5.70;;
20324;SDS011;10320;49.482;11.256;2024-03-23T08:24:12;6.67;;;5.10;;
20324;SDS011;10320;49.482;11.256;2024-03-23T08:26:38;7.33;;;6.10;;
20324;SDS011;10320;49.482;11.256;2024-03-23T08:29:04;4.60;;;3.30;;
20324;SDS011;10320;49.482;11.256;2024-03-23T08:31:30;5.73;;;4.63;;
20324;SDS011;10320;49.482;11.256;2024-03-23T08:33:56;6.73;;;4.93;;
20324;SDS011;10320;49.482;11.256;2024-03-23T08:36:22;7.53;;;4.40;;
20324;SDS011;10320;49.482;11.256;2024-03-23T08:38:49;5.90;;;4.50;;
20324;SDS011;10320;49.482;11.256;2024-03-23T08:41:18;5.80;;;4.03;;
20324;SDS011;10320;49.482;11.256;2024-03-23T08:43:44;5.37;;;3.83;;
20324;SDS011;10320;49.482;11.256;2024-03-23T08:46:11;4.97;;;3.87;;
20324;SDS011;10320;49.482;11.256;2024-03-23T08:48:38;5.30;;;4.47;;
20324;SDS011;10320;49.482;11.256;2024-03-23T08:51:04;6.00;;;4.73;;
20324;SDS011;10320;49.482;11.256;2024-03-23T08:53:31;6.07;;;4.30;;
20324;SDS011;10320;49.482;11.256;2024-03-23T08:55:57;4.40;;;3.33;;
20324;SDS011;10320;49.482;11.256;2024-03-23T08:58:23;3.93;;;2.90;;
20324;SDS011;10320;49.482;11.256;2024-03-23T09:00:53;3.70;;;2.87;;
20324;SDS011;10320;49.482;11.256;2024-03-23T09:03:21;3.10;;;2.80;;
20324;SDS011;10320;49.482;11.256;2024-03-23T09:05:47;3.07;;;2.77;;
20324;SDS011;10320;49.482;11.256;2024-03-23T09:08:13;2.63;;;2.43;;
20324;SDS011;10320;49.482;11.256;2024-03-23T09:10:40;2.80;;;2.17;;
20324;SDS011;10320;49.482;11.256;2024-03-23T09:13:06;2.30;;;2.10;;
20324;SDS011;10320;49.482;11.256;2024-03-23T09:15:35;2.10;;;1.67;;
20324;SDS011;10320;49.482;11.256;2024-03-23T09:18:02;2.13;;;1.80;;
20324;SDS011;10320;49.482;11.256;2024-03-23T09:20:28;2.30;;;2.10;;
20324;SDS011;10320;49.482;11.256;2024-03-23T09:22:54;1.83;;;1.73;;
20324;SDS011;10320;49.482;11.256;2024-03-23T09:25:20;1.70;;;1.60;;
20324;SDS011;10320;49.482;11.256;2024-03-23T09:27:46;2.00;;;1.80;;
20324;SDS011;10320;49.482;11.256;2024-03-23T09:30:13;1.67;;;1.57;;
20324;SDS011;10320;49.482;11.256;2024-03-23T09:32:41;1.97;;;1.63;;
20324;SDS011;10320;49.482;11.256;2024-03-23T09:35:07;1.53;;;1.40;;
20324;SDS011;10320;49.482;11.256;2024-03-23T09:37:33;1.90;;;1.60;;
20324;SDS011;10320;49.482;11.256;2024-03-23T09:39:59;1.20;;;1.10;;
20324;SDS011;10320;49.482;11.256;2024-03-23T09:42:25;1.23;;;1.13;;
20324;SDS011;10320;49.482;11.256;2024-03-23T09:44:51;0.90;;;0.90;;
20324;SDS011;10320;49.482;11.256;2024-03-23T09:47:17;1.40;;;1.10;;
20324;SDS011;10320;49.482;11.256;2024-03-23T09:49:44;1.07;;;0.97;;
20324;SDS011;10320;49.482;11.256;2024-03-23T09:52:10;0.60;;;0.60;;
20324;SDS011;10320;49.482;11.256;2024-03-23T09:54:36;1.00;;;0.93;;
20324;SDS011;10320;49.482;11.256;2024-03-23T09:57:02;0.50;;;0.50;;
20324;SDS011;10320;49.482;11.256;2024-03-23T09:59:29;0.63;;;0.63;;
20324;SDS011;10320;49.482;11.256;2024-03-23T10:01:55;0.60;;;0.50;;
20324;SDS011;10320;49.482;11.256;2024-03-23T10:07:13;1.00;;;0.60;;
20324;SDS011;10320;49.482;11.256;2024-03-23T10:09:39;0.40;;;0.40;;
20324;SDS011;10320;49.482;11.256;2024-03-23T10:12:11;0.40;;;0.40;;
20324;SDS011;10320;49.482;11.256;2024-03-23T10:14:38;0.43;;;0.43;;
20324;SDS011;10320;49.482;11.256;2024-03-23T10:17:15;0.30;;;0.30;;
20324;SDS011;10320;49.482;11.256;2024-03-23T10:19:45;0.73;;;0.40;;
20324;SDS011;10320;49.482;11.256;2024-03-23T10:22:13;0.40;;;0.40;;
20324;SDS011;10320;49.482;11.256;2024-03-23T10:24:41;0.60;;;0.60;;
20324;SDS011;10320;49.482;11.256;2024-03-23T10:27:07;0.40;;;0.40;;
20324;SDS011;10320;49.482;11.256;2024-03-23T10:29:33;0.53;;;0.50;;
20324;SDS011;10320;49.482;11.256;2024-03-23T10:32:09;0.50;;;0.50;;
20324;SDS011;10320;49.482;11.256;2024-03-23T10:34:36;0.50;;;0.50;;
20324;SDS011;10320;49.482;11.256;2024-03-23T10:37:02;0.83;;;0.80;;
20324;SDS011;10320;49.482;11.256;2024-03-23T10:39:32;1.00;;;0.90;;
20324;SDS011;10320;49.482;11.256;2024-03-23T10:42:05;0.70;;;0.70;;
20324;SDS011;10320;49.482;11.256;2024-03-23T10:44:32;1.10;;;1.00;;
20324;SDS011;10320;49.482;11.256;2024-03-23T10:46:58;1.00;;;0.90;;
20324;SDS011;10320;49.482;11.256;2024-03-23T10:49:29;1.40;;;1.10;;
20324;SDS011;10320;49.482;11.256;2024-03-23T10:51:58;1.13;;;0.90;;
20324;SDS011;10320;49.482;11.256;2024-03-23T10:54:25;1.70;;;1.50;;
20324;SDS011;10320;49.482;11.256;2024-03-23T10:56:53;1.40;;;1.30;;
20324;SDS011;10320;49.482;11.256;2024-03-23T10:59:22;1.77;;;1.33;;
20324;SDS011;10320;49.482;11.256;2024-03-23T11:01:58;0.97;;;0.93;;
20324;SDS011;10320;49.482;11.256;2024-03-23T11:04:33;1.20;;;1.00;;
20324;SDS011;10320;49.482;11.256;2024-03-23T11:07:00;2.90;;;1.30;;
20324;SDS011;10320;49.482;11.256;2024-03-23T11:12:17;2.90;;;1.37;;
20324;SDS011;10320;49.482;11.256;2024-03-23T11:17:19;1.60;;;1.50;;
20324;SDS011;10320;49.482;11.256;2024-03-23T11:19:58;1.60;;;1.40;;
20324;SDS011;10320;49.482;11.256;2024-03-23T11:25:22;1.80;;;1.50;;
20324;SDS011;10320;49.482;11.256;2024-03-23T11:27:55;2.70;;;1.53;;
20324;SDS011;10320;49.482;11.256;2024-03-23T11:30:25;1.83;;;1.40;;
20324;SDS011;10320;49.482;11.256;2024-03-23T11:32:56;1.70;;;1.40;;
20324;SDS011;10320;49.482;11.256;2024-03-23T11:38:04;3.27;;;1.50;;
20324;SDS011;10320;49.482;11.256;2024-03-23T11:40:30;1.83;;;1.57;;
20324;SDS011;10320;49.482;11.256;2024-03-23T11:42:58;2.50;;;1.40;;
20324;SDS011;10320;49.482;11.256;2024-03-23T11:45:24;2.67;;;1.30;;
20324;SDS011;10320;49.482;11.256;2024-03-23T11:48:01;2.10;;;1.37;;
20324;SDS011;10320;49.482;11.256;2024-03-23T11:50:28;3.33;;;1.43;;
20324;SDS011;10320;49.482;11.256;2024-03-23T11:53:05;2.23;;;1.60;;
20324;SDS011;10320;49.482;11.256;2024-03-23T11:55:38;3.10;;;1.77;;
20324;SDS011;10320;49.482;11.256;2024-03-23T11:58:04;2.17;;;1.70;;
20324;SDS011;10320;49.482;11.256;2024-03-23T12:00:30;3.33;;;1.80;;
20324;SDS011;10320;49.482;11.256;2024-03-23T12:03:01;3.47;;;2.17;;
20324;SDS011;10320;49.482;11.256;2024-03-23T12:05:27;3.90;;;1.90;;
20324;SDS011;10320;49.482;11.256;2024-03-23T12:07:54;3.40;;;2.33;;
20324;SDS011;10320;49.482;11.256;2024-03-23T12:10:20;2.40;;;1.95;;
20324;SDS011;10320;49.482;11.256;2024-03-23T12:12:46;2.93;;;2.13;;
20324;SDS011;10320;49.482;11.256;2024-03-23T12:15:32;2.97;;;1.77;;
20324;SDS011;10320;49.482;11.256;2024-03-23T12:18:10;4.63;;;2.17;;
20324;SDS011;10320;49.482;11.256;2024-03-23T12:20:39;4.60;;;2.07;;
20324;SDS011;10320;49.482;11.256;2024-03-23T12:23:09;3.17;;;1.60;;
20324;SDS011;10320;49.482;11.256;2024-03-23T12:25:36;4.13;;;1.83;;
20324;SDS011;10320;49.482;11.256;2024-03-23T12:28:02;3.67;;;1.90;;
20324;SDS011;10320;49.482;11.256;2024-03-23T12:30:31;3.87;;;1.93;;
20324;SDS011;10320;49.482;11.256;2024-03-23T12:32:57;3.17;;;1.70;;
20324;SDS011;10320;49.482;11.256;2024-03-23T12:35:23;2.60;;;1.63;;
20324;SDS011;10320;49.482;11.256;2024-03-23T12:37:53;3.17;;;1.73;;
20324;SDS011;10320;49.482;11.256;2024-03-23T12:40:19;2.00;;;1.53;;
20324;SDS011;10320;49.482;11.256;2024-03-23T12:42:45;4.17;;;1.90;;
20324;SDS011;10320;49.482;11.256;2024-03-23T12:45:11;3.57;;;1.70;;
20324;SDS011;10320;49.482;11.256;2024-03-23T12:47:38;2.73;;;1.73;;
20324;SDS011;10320;49.482;11.256;2024-03-23T12:50:04;3.37;;;2.03;;
20324;SDS011;10320;49.482;11.256;2024-03-23T12:52:31;3.93;;;1.93;;
20324;SDS011;10320;49.482;11.256;2024-03-23T12:54:57;4.10;;;1.73;;
20324;SDS011;10320;49.482;11.256;2024-03-23T12:57:26;2.83;;;1.57;;
20324;SDS011;10320;49.482;11.256;2024-03-23T12:59:52;3.27;;;2.13;;
20324;SDS011;10320;49.482;11.256;2024-03-23T13:02:19;2.00;;;1.80;;
20324;SDS011;10320;49.482;11.256;2024-03-23T13:04:46;2.83;;;1.60;;
20324;SDS011;10320;49.482;11.256;2024-03-23T13:07:12;2.57;;;1.93;;
20324;SDS011;10320;49.482;11.256;2024-03-23T13:09:38;2.23;;;1.87;;
20324;SDS011;10320;49.482;11.256;2024-03-23T13:12:04;3.00;;;2.00;;
20324;SDS011;10320;49.482;11.256;2024-03-23T13:14:30;2.97;;;1.90;;
20324;SDS011;10320;49.482;11.256;2024-03-23T13:16:56;4.10;;;1.87;;
20324;SDS011;10320;49.482;11.256;2024-03-23T13:19:22;2.37;;;1.90;;
20324;SDS011;10320;49.482;11.256;2024-03-23T13:21:52;3.13;;;2.60;;
20324;SDS011;10320;49.482;11.256;2024-03-23T13:24:21;2.43;;;1.83;;
20324;SDS011;10320;49.482;11.256;2024-03-23T13:26:47;2.83;;;2.10;;
20324;SDS011;10320;49.482;11.256;2024-03-23T13:29:13;3.10;;;2.03;;
20324;SDS011;10320;49.482;11.256;2024-03-23T13:31:39;3.97;;;2.50;;
20324;SDS011;10320;49.482;11.256;2024-03-23T13:34:05;2.20;;;2.00;;
20324;SDS011;10320;49.482;11.256;2024-03-23T13:36:31;3.17;;;2.00;;
20324;SDS011;10320;49.482;11.256;2024-03-23T13:38:57;3.77;;;2.23;;
20324;SDS011;10320;49.482;11.256;2024-03-23T13:41:23;5.93;;;2.90;;
20324;SDS011;10320;49.482;11.256;2024-03-23T13:43:49;4.87;;;2.10;;
20324;SDS011;10320;49.482;11.256;2024-03-23T13:46:15;3.00;;;2.03;;
20324;SDS011;10320;49.482;11.256;2024-03-23T13:48:41;3.43;;;2.17;;
20324;SDS011;10320;49.482;11.256;2024-03-23T13:51:07;5.53;;;3.00;;
20324;SDS011;10320;49.482;11.256;2024-03-23T13:53:33;4.43;;;2.50;;
20324;SDS011;10320;49.482;11.256;2024-03-23T13:55:59;2.97;;;2.10;;
20324;SDS011;10320;49.482;11.256;2024-03-23T13:58:25;4.40;;;2.40;;
20324;SDS011;10320;49.482;11.256;2024-03-23T14:00:52;5.20;;;2.70;;
20324;SDS011;10320;49.482;11.256;2024-03-23T14:03:18;4.23;;;2.80;;
20324;SDS011;10320;49.482;11.256;2024-03-23T14:05:44;2.77;;;1.67;;
20324;SDS011;10320;49.482;11.256;2024-03-23T14:08:12;3.47;;;2.20;;
20324;SDS011;10320;49.482;11.256;2024-03-23T14:10:41;3.87;;;2.03;;
20324;SDS011;10320;49.482;11.256;2024-03-23T14:13:08;4.53;;;3.33;;
20324;SDS011;10320;49.482;11.256;2024-03-23T14:15:34;5.40;;;2.27;;
20324;SDS011;10320;49.482;11.256;2024-03-23T14:18:01;3.27;;;1.50;;
20324;SDS011;10320;49.482;11.256;2024-03-23T14:20:28;2.60;;;2.23;;
20324;SDS011;10320;49.482;11.256;2024-03-23T14:22:54;3.37;;;2.17;;
20324;SDS011;10320;49.482;11.256;2024-03-23T14:25:21;4.27;;;1.90;;
20324;SDS011;10320;49.482;11.256;2024-03-23T14:27:52;3.57;;;2.10;;
20324;SDS011;10320;49.482;11.256;2024-03-23T14:30:18;3.53;;;2.40;;
20324;SDS011;10320;49.482;11.256;2024-03-23T14:32:44;4.40;;;1.87;;
20324;SDS011;10320;49.482;11.256;2024-03-23T14:35:10;2.57;;;1.60;;
20324;SDS011;10320;49.482;11.256;2024-03-23T14:37:37;3.70;;;1.73;;
20324;SDS011;10320;49.482;11.256;2024-03-23T14:40:03;2.47;;;1.70;;
20324;SDS011;10320;49.482;11.256;2024-03-23T14:42:29;3.13;;;2.03;;
20324;SDS011;10320;49.482;11.256;2024-03-23T14:44:57;3.20;;;1.80;;
20324;SDS011;10320;49.482;11.256;2024-03-23T14:47:23;2.43;;;1.53;;
20324;SDS011;10320;49.482;11.256;2024-03-23T14:49:49;3.83;;;1.73;;
20324;SDS011;10320;49.482;11.256;2024-03-23T14:52:19;4.37;;;1.80;;
20324;SDS011;10320;49.482;11.256;2024-03-23T14:54:45;3.53;;;2.03;;
20324;SDS011;10320;49.482;11.256;2024-03-23T14:57:11;4.60;;;1.97;;
20324;SDS011;10320;49.482;11.256;2024-03-23T14:59:38;3.97;;;2.00;;
20324;SDS011;10320;49.482;11.256;2024-03-23T15:02:05;4.00;;;1.83;;
20324;SDS011;10320;49.482;11.256;2024-03-23T15:04:31;4.40;;;1.70;;
20324;SDS011;10320;49.482;11.256;2024-03-23T15:06:57;2.67;;;1.70;;
20324;SDS011;10320;49.482;11.256;2024-03-23T15:09:23;3.97;;;1.70;;
20324;SDS011;10320;49.482;11.256;2024-03-23T15:11:49;5.00;;;2.33;;
20324;SDS011;10320;49.482;11.256;2024-03-23T15:14:15;4.13;;;1.90;;
20324;SDS011;10320;49.482;11.256;2024-03-23T15:16:41;2.73;;;1.97;;
20324;SDS011;10320;49.482;11.256;2024-03-23T15:19:08;6.20;;;2.47;;
20324;SDS011;10320;49.482;11.256;2024-03-23T15:21:34;3.97;;;2.00;;
20324;SDS011;10320;49.482;11.256;2024-03-23T15:24:00;4.47;;;1.90;;
20324;SDS011;10320;49.482;11.256;2024-03-23T15:26:26;4.13;;;2.00;;
20324;SDS011;10320;49.482;11.256;2024-03-23T15:28:52;4.43;;;2.40;;
20324;SDS011;10320;49.482;11.256;2024-03-23T15:31:24;5.20;;;2.57;;
20324;SDS011;10320;49.482;11.256;2024-03-23T15:33:51;3.20;;;2.60;;
20324;SDS011;10320;49.482;11.256;2024-03-23T15:36:17;2.30;;;2.07;;
20324;SDS011;10320;49.482;11.256;2024-03-23T15:38:43;3.40;;;2.40;;